Green Oak Township, Michigan
Current Conditions -  °F | °C
As of 5:35 PM on Monday 20 Oct 2014 (Local Time) from KOZW Reporting Station
Overcast Overcast  
Wind Chill: 13°   Ceiling: 6000
Heat Index: 13°   Visibility: 10mi
Dew Point:   Wind: 8mph
Humidity: 77%   Direction: 260°W
Pressure: 29.79"   Gusts: NA
Location:  42.5333°N, 83.7735°W
Report Text: KOZW 202135Z AUTO 26007KT 10SM BKN060 OVC090 13/09 A2979 RMK AO2 T01300091
Loading
Personal Weather Stations






























Interactive Weather Map
Tropical Storm Tracking
New forecast layout! Learn more

10-Day Weather Forecast

Advertisements
Track Severe Weather on mobile